Time;durP1;ratioP1;P1;durP2;ratioP2;P2;SDS_P1;SDS_P2;PMS_P1;PMS_P2;Temp;Humidity;BMP_temperature;BMP_pressure;BME280_temperature;BME280_humidity;BME280_pressure;Samples;Min_cycle;Max_cycle;Signal;HPM_P1;HPM_P2
2022/08/31 00:05:58;;;;;;;20.37;10.32;;;;;;;12.05;100.00;98404.70;1731323;82;21072;-91
2022/08/31 00:08:24;;;;;;;14.85;10.05;;;;;;;12.01;100.00;98403.62;1746767;82;20986;-85
2022/08/31 00:10:50;;;;;;;14.40;9.10;;;;;;;11.97;100.00;98404.73;1731333;82;21042;-84
2022/08/31 00:13:16;;;;;;;15.98;10.40;;;;;;;11.93;100.00;98400.13;1759487;80;21413;-90
2022/08/31 00:15:42;;;;;;;18.02;10.95;;;;;;;11.94;100.00;98405.28;1761935;80;20902;-91
2022/08/31 00:18:08;;;;;;;14.90;9.80;;;;;;;11.96;100.00;98400.92;1757714;80;21014;-90
2022/08/31 00:20:34;;;;;;;13.68;9.70;;;;;;;11.96;100.00;98400.37;1762632;80;20889;-90
2022/08/31 00:23:06;;;;;;;15.70;10.25;;;;;;;11.94;100.00;98399.03;1756333;80;21029;-84
2022/08/31 00:25:33;;;;;;;13.85;10.43;;;;;;;11.92;100.00;98403.39;1757869;80;20978;-91
2022/08/31 00:27:58;;;;;;;19.73;10.32;;;;;;;11.91;100.00;98400.96;1764448;80;21045;-84
2022/08/31 00:30:25;;;;;;;19.23;9.90;;;;;;;11.85;100.00;98397.45;1753621;81;21029;-90
2022/08/31 00:32:51;;;;;;;14.18;9.58;;;;;;;11.82;100.00;98403.44;1739296;82;20973;-84
2022/08/31 00:35:17;;;;;;;16.30;9.50;;;;;;;11.77;100.00;98403.42;1747259;82;21028;-84
2022/08/31 00:37:43;;;;;;;14.33;10.28;;;;;;;11.76;100.00;98408.59;1777799;80;20943;-91
2022/08/31 00:40:10;;;;;;;16.55;11.55;;;;;;;11.69;100.00;98405.35;1774822;80;20985;-91
2022/08/31 00:42:36;;;;;;;14.00;10.70;;;;;;;11.67;100.00;98405.64;1733274;81;21050;-91
2022/08/31 00:45:02;;;;;;;15.63;10.08;;;;;;;11.68;100.00;98397.75;1758258;81;20941;-84
2022/08/31 00:47:28;;;;;;;17.75;11.15;;;;;;;11.67;100.00;98393.97;1756116;81;21430;-84
2022/08/31 00:49:54;;;;;;;16.30;10.38;;;;;;;11.50;100.00;98401.89;1758198;80;20889;-90
2022/08/31 00:52:30;;;;;;;14.20;10.95;;;;;;;11.45;100.00;98400.56;1765177;80;20922;-90
2022/08/31 00:55:10;;;;;;;13.70;8.98;;;;;;;11.36;100.00;98399.48;1763887;80;21746;-85
2022/08/31 00:57:39;;;;;;;14.15;10.30;;;;;;;11.33;100.00;98406.02;1757503;81;21040;-84
2022/08/31 01:00:10;;;;;;;15.25;9.63;;;;;;;11.30;100.00;98411.45;1758088;81;20973;-88
2022/08/31 01:02:36;;;;;;;14.18;9.03;;;;;;;11.31;100.00;98403.58;1756272;81;20965;-90
2022/08/31 01:05:02;;;;;;;14.73;9.85;;;;;;;11.30;100.00;98398.70;1758915;80;21410;-84
2022/08/31 01:07:28;;;;;;;15.58;10.32;;;;;;;11.32;100.00;98409.27;1759691;80;21422;-89
2022/08/31 01:09:54;;;;;;;14.53;9.80;;;;;;;11.33;100.00;98406.83;1757716;80;21020;-89
2022/08/31 01:12:20;;;;;;;13.13;10.48;;;;;;;11.36;100.00;98407.62;1774138;80;20878;-91
2022/08/31 01:14:46;;;;;;;12.85;9.35;;;;;;;11.40;100.00;98406.55;1762664;81;20936;-91
2022/08/31 01:17:12;;;;;;;14.68;9.88;;;;;;;11.43;100.00;98405.98;1756435;81;21068;-91
2022/08/31 01:19:52;;;;;;;13.78;10.88;;;;;;;11.45;100.00;98407.35;1728731;82;21162;-83
2022/08/31 01:22:27;;;;;;;15.88;9.58;;;;;;;11.42;100.00;98410.59;1757154;81;20989;-84
2022/08/31 01:24:53;;;;;;;13.30;9.13;;;;;;;11.40;100.00;98411.97;1733520;82;21458;-85
2022/08/31 01:27:23;;;;;;;17.10;9.90;;;;;;;11.39;100.00;98404.92;1762073;80;21563;-91
2022/08/31 01:29:49;;;;;;;11.80;9.10;;;;;;;11.39;100.00;98406.28;1758326;80;21036;-83
2022/08/31 01:32:15;;;;;;;11.70;8.83;;;;;;;11.33;100.00;98406.02;1759778;81;21199;-91
2022/08/31 01:34:41;;;;;;;14.40;9.78;;;;;;;11.31;100.00;98404.94;1758721;80;20952;-85
2022/08/31 01:37:07;;;;;;;13.20;9.43;;;;;;;11.30;100.00;98406.03;1758186;80;20992;-84
2022/08/31 01:39:33;;;;;;;11.95;8.85;;;;;;;11.24;100.00;98406.57;1766346;80;20831;-91
2022/08/31 01:41:59;;;;;;;16.67;9.15;;;;;;;11.22;100.00;98401.16;1756330;81;20893;-84
2022/08/31 01:44:25;;;;;;;12.33;8.78;;;;;;;11.20;100.00;98404.70;1732844;80;21182;-83
2022/08/31 01:46:51;;;;;;;10.98;8.38;;;;;;;11.20;100.00;98398.73;1745546;81;21438;-90
2022/08/31 01:49:18;;;;;;;12.45;8.15;;;;;;;11.23;100.00;98406.84;1748970;80;20970;-84
2022/08/31 01:51:44;;;;;;;9.63;7.20;;;;;;;11.28;100.00;98404.95;1753088;81;21042;-91
2022/08/31 01:54:10;;;;;;;11.57;7.60;;;;;;;11.32;100.00;98406.56;1749754;80;21018;-90
2022/08/31 01:56:40;;;;;;;12.43;9.10;;;;;;;11.35;100.00;98411.42;1763922;80;21384;-91
2022/08/31 01:59:07;;;;;;;13.22;8.25;;;;;;;11.33;100.00;98412.80;1750480;80;20956;-84
2022/08/31 02:01:38;;;;;;;11.35;8.63;;;;;;;11.30;100.00;98415.52;1739513;80;21422;-90
2022/08/31 02:04:05;;;;;;;12.63;9.03;;;;;;;11.30;100.00;98410.09;1724082;82;21060;-91
2022/08/31 02:06:31;;;;;;;14.03;9.38;;;;;;;11.29;100.00;98408.47;1752915;79;20939;-90
2022/08/31 02:08:57;;;;;;;12.65;9.40;;;;;;;11.21;100.00;98409.03;1760697;80;22031;-91
2022/08/31 02:11:23;;;;;;;17.32;10.48;;;;;;;11.18;100.00;98409.02;1758271;80;20964;-91
2022/08/31 02:13:49;;;;;;;15.20;9.35;;;;;;;11.21;100.00;98418.52;1743570;80;21033;-84
2022/08/31 02:16:15;;;;;;;12.43;9.13;;;;;;;11.22;100.00;98411.47;1760224;80;20974;-90
2022/08/31 02:18:41;;;;;;;11.08;8.55;;;;;;;11.23;100.00;98413.63;1756935;81;20874;-84
2022/08/31 02:21:07;;;;;;;14.23;8.98;;;;;;;11.28;100.00;98410.92;1734807;80;21344;-84
2022/08/31 02:23:33;;;;;;;16.95;10.03;;;;;;;11.30;100.00;98412.27;1758695;81;21016;-90
2022/08/31 02:25:59;;;;;;;13.78;8.83;;;;;;;11.33;100.00;98408.72;1755794;80;21025;-90
2022/08/31 02:28:25;;;;;;;13.20;8.98;;;;;;;11.32;100.00;98413.88;1758729;80;21494;-84
2022/08/31 02:30:51;;;;;;;13.68;8.98;;;;;;;11.31;100.00;98407.65;1742938;80;20913;-90
2022/08/31 02:33:17;;;;;;;18.87;8.93;;;;;;;11.29;100.00;98413.90;1758383;81;21026;-83
2022/08/31 02:35:43;;;;;;;12.88;9.63;;;;;;;11.32;100.00;98408.46;1749796;80;20928;-84
2022/08/31 02:38:09;;;;;;;16.27;9.70;;;;;;;11.37;100.00;98404.39;1754172;80;20965;-84
2022/08/31 02:40:37;;;;;;;16.05;9.28;;;;;;;11.39;100.00;98398.95;1755133;81;21390;-85
2022/08/31 02:43:08;;;;;;;16.17;9.70;;;;;;;11.43;100.00;98386.98;1756401;80;21029;-90
2022/08/31 02:45:35;;;;;;;19.60;11.55;;;;;;;11.47;100.00;98388.89;1755502;81;21146;-90
2022/08/31 02:48:03;;;;;;;17.15;11.00;;;;;;;11.53;100.00;98388.30;1763334;80;21356;-90
2022/08/31 02:50:29;;;;;;;22.80;11.43;;;;;;;11.56;100.00;98395.37;1765578;80;21954;-91
2022/08/31 02:52:55;;;;;;;17.45;9.13;;;;;;;11.60;100.00;98396.97;1765986;80;21017;-91
2022/08/31 02:55:23;;;;;;;13.50;8.88;;;;;;;11.56;100.00;98396.73;1731371;80;20966;-85
2022/08/31 02:57:50;;;;;;;15.70;9.10;;;;;;;11.56;100.00;98399.44;1722288;81;21078;-91
2022/08/31 03:00:18;;;;;;;13.50;9.08;;;;;;;11.54;100.00;98402.98;1748089;82;20958;-84
2022/08/31 03:02:44;;;;;;;12.75;8.85;;;;;;;11.55;100.00;98396.45;1754961;80;21030;-92
2022/08/31 03:05:10;;;;;;;17.05;9.38;;;;;;;11.57;100.00;98401.06;1747249;80;20894;-90
2022/08/31 03:07:36;;;;;;;14.75;9.35;;;;;;;11.57;100.00;98403.77;1729045;81;20958;-88
2022/08/31 03:10:08;;;;;;;14.87;9.53;;;;;;;11.58;100.00;98408.11;1761173;80;21005;-91
2022/08/31 03:12:35;;;;;;;11.45;7.45;;;;;;;11.59;100.00;98408.37;1750923;80;21439;-91
2022/08/31 03:15:03;;;;;;;15.83;8.45;;;;;;;11.59;100.00;98401.59;1756041;80;21368;-84
2022/08/31 03:17:29;;;;;;;12.10;7.97;;;;;;;11.56;100.00;98406.77;1762191;80;21454;-91
2022/08/31 03:19:59;;;;;;;12.40;7.80;;;;;;;11.54;100.00;98409.77;1765361;80;20949;-84
2022/08/31 03:22:23;;;;;;;15.78;8.28;;;;;;;11.53;100.00;98405.40;1764509;80;21314;-84
2022/08/31 03:24:49;;;;;;;13.72;7.80;;;;;;;11.53;100.00;98409.47;1765275;80;20871;-91
2022/08/31 03:27:15;;;;;;;19.30;10.45;;;;;;;11.54;100.00;98402.98;1756821;81;20885;-91
2022/08/31 03:29:41;;;;;;;13.68;9.13;;;;;;;11.52;100.00;98407.84;1763652;80;20962;-91
2022/08/31 03:32:07;;;;;;;18.80;8.88;;;;;;;11.51;100.00;98404.87;1757827;81;21520;-89
2022/08/31 03:34:33;;;;;;;20.43;10.63;;;;;;;11.51;100.00;98404.06;1755254;80;21682;-91
2022/08/31 03:36:59;;;;;;;16.35;9.58;;;;;;;11.52;100.00;98405.14;1764977;80;21035;-84
2022/08/31 03:39:25;;;;;;;16.70;8.95;;;;;;;11.55;100.00;98407.31;1766578;80;20889;-89
2022/08/31 03:41:51;;;;;;;19.60;11.33;;;;;;;11.56;100.00;98409.48;1750512;80;21023;-90
2022/08/31 03:44:22;;;;;;;16.10;9.58;;;;;;;11.56;100.00;98408.13;1750851;80;20989;-85
2022/08/31 03:46:48;;;;;;;18.30;10.30;;;;;;;11.55;100.00;98399.72;1761922;80;22033;-91
2022/08/31 03:49:13;;;;;;;19.70;10.03;;;;;;;11.60;100.00;98406.47;1764908;80;20946;-91
2022/08/31 03:51:39;;;;;;;15.60;9.03;;;;;;;11.57;100.00;98402.96;1758629;80;21414;-91
2022/08/31 03:54:05;;;;;;;11.40;8.20;;;;;;;11.57;100.00;98401.06;1731696;80;20871;-85
2022/08/31 03:56:31;;;;;;;14.33;8.80;;;;;;;11.53;100.00;98406.75;1746793;80;20902;-89
2022/08/31 03:58:57;;;;;;;15.63;10.55;;;;;;;11.54;100.00;98408.41;1749575;80;20994;-84
2022/08/31 04:01:22;;;;;;;23.42;10.23;;;;;;;11.53;100.00;98404.05;1731520;80;20830;-84
2022/08/31 04:03:49;;;;;;;17.35;9.83;;;;;;;11.51;100.00;98410.30;1756792;81;21024;-91
2022/08/31 04:06:14;;;;;;;16.35;8.43;;;;;;;11.51;100.00;98407.58;1752255;81;21005;-92
2022/08/31 04:08:40;;;;;;;16.90;8.95;;;;;;;11.51;100.00;98404.06;1751249;80;20871;-84
2022/08/31 04:11:12;;;;;;;18.77;9.55;;;;;;;11.49;100.00;98407.05;1731652;80;21198;-84
2022/08/31 04:13:39;;;;;;;19.67;9.40;;;;;;;11.48;100.00;98411.41;1771784;79;21033;-84
2022/08/31 04:16:07;;;;;;;18.92;10.58;;;;;;;11.50;100.00;98402.44;1738510;80;21457;-91
2022/08/31 04:18:33;;;;;;;15.80;10.43;;;;;;;11.53;100.00;98410.02;1753859;81;20977;-84
2022/08/31 04:20:59;;;;;;;17.25;9.88;;;;;;;11.55;100.00;98415.45;1768942;79;21395;-91
2022/08/31 04:23:28;;;;;;;15.55;9.98;;;;;;;11.57;100.00;98414.63;1773319;80;21135;-84
2022/08/31 04:25:52;;;;;;;16.10;9.55;;;;;;;11.62;100.00;98416.50;1773364;79;21011;-91
2022/08/31 04:28:19;;;;;;;15.13;10.10;;;;;;;11.64;100.00;98423.84;1757514;81;20895;-83
2022/08/31 04:30:45;;;;;;;16.62;10.72;;;;;;;11.69;100.00;98420.28;1753808;81;20863;-84
2022/08/31 04:33:11;;;;;;;18.02;8.90;;;;;;;11.75;100.00;98421.35;1773190;79;21407;-90
2022/08/31 04:35:41;;;;;;;16.60;11.03;;;;;;;11.83;100.00;98426.78;1773522;77;21897;-84
2022/08/31 04:38:07;;;;;;;22.27;12.15;;;;;;;11.81;100.00;98424.36;1794105;79;21073;-91
2022/08/31 04:40:38;;;;;;;18.70;10.60;;;;;;;11.87;100.00;98427.84;1749206;81;20908;-84
2022/08/31 04:43:04;;;;;;;14.35;9.65;;;;;;;11.97;100.00;98422.94;1719200;81;21492;-87
2022/08/31 04:45:30;;;;;;;19.90;11.55;;;;;;;12.01;100.00;98429.42;1757149;79;20986;-84
2022/08/31 04:47:56;;;;;;;15.48;10.45;;;;;;;12.06;100.00;98424.79;1723184;81;21215;-90
2022/08/31 04:50:22;;;;;;;18.80;12.03;;;;;;;12.13;100.00;98421.74;1769684;79;20912;-90
2022/08/31 04:52:49;;;;;;;17.92;9.98;;;;;;;12.19;100.00;98426.06;1729739;82;20957;-90
2022/08/31 04:55:16;;;;;;;19.52;11.25;;;;;;;12.19;100.00;98434.22;1756724;81;20958;-84
2022/08/31 04:57:42;;;;;;;16.75;9.40;;;;;;;12.19;100.00;98431.50;1709489;82;21450;-89
2022/08/31 05:00:08;;;;;;;15.88;9.43;;;;;;;12.12;100.00;98433.70;1733626;81;21148;-90
2022/08/31 05:02:35;;;;;;;16.52;8.78;;;;;;;12.08;100.00;98425.31;1739083;82;21045;-84
2022/08/31 05:05:01;;;;;;;16.77;9.48;;;;;;;12.08;100.00;98423.95;1737895;80;21454;-84
2022/08/31 05:07:27;;;;;;;12.13;8.53;;;;;;;12.04;100.00;98432.92;1736042;81;21017;-85
2022/08/31 05:09:53;;;;;;;15.80;9.75;;;;;;;12.03;100.00;98433.47;1728342;82;20903;-91
2022/08/31 05:12:19;;;;;;;15.38;9.88;;;;;;;12.03;100.00;98436.19;1741848;80;20954;-90
2022/08/31 05:14:46;;;;;;;14.95;10.50;;;;;;;12.09;100.00;98441.06;1727507;81;21509;-90
2022/08/31 05:17:12;;;;;;;16.55;10.43;;;;;;;12.18;100.00;98442.65;1751269;81;21065;-84
2022/08/31 05:19:38;;;;;;;14.98;10.90;;;;;;;12.25;100.00;98445.87;1729023;80;21030;-90
2022/08/31 05:22:04;;;;;;;13.72;9.23;;;;;;;12.36;100.00;98452.33;1752291;80;21051;-91
2022/08/31 05:24:34;;;;;;;14.07;9.50;;;;;;;12.50;100.00;98453.08;1763971;81;20950;-85
2022/08/31 05:26:58;;;;;;;15.93;9.08;;;;;;;12.56;100.00;98458.72;1771761;79;21007;-83
2022/08/31 05:29:24;;;;;;;13.98;9.78;;;;;;;12.58;100.00;98466.88;1755596;79;20973;-84
2022/08/31 05:31:50;;;;;;;14.20;9.53;;;;;;;12.61;100.00;98465.50;1771778;79;21408;-89
2022/08/31 05:34:16;;;;;;;13.53;9.38;;;;;;;12.53;100.00;98462.02;1768720;79;20875;-91
2022/08/31 05:36:44;;;;;;;10.75;8.38;;;;;;;12.55;100.00;98463.34;1705886;80;21006;-91
2022/08/31 05:39:11;;;;;;;19.32;8.43;;;;;;;12.63;100.00;98458.67;1735868;82;20982;-84
2022/08/31 05:41:40;;;;;;;12.98;8.43;;;;;;;12.73;100.00;98459.70;1736158;81;21010;-84
2022/08/31 05:44:06;;;;;;;12.07;9.28;;;;;;;12.68;100.00;98455.94;1752016;79;21061;-85
2022/08/31 05:46:32;;;;;;;12.40;8.90;;;;;;;12.69;100.00;98449.40;1741453;81;20968;-84
2022/08/31 05:48:58;;;;;;;13.05;8.25;;;;;;;12.81;100.00;98454.47;1760600;79;21041;-90
2022/08/31 05:51:24;;;;;;;10.13;7.17;;;;;;;12.90;100.00;98455.52;1733361;80;20939;-90
2022/08/31 05:53:50;;;;;;;14.20;7.97;;;;;;;12.97;100.00;98454.61;1729299;80;21036;-90
2022/08/31 05:56:19;;;;;;;10.08;7.37;;;;;;;12.96;100.00;98459.80;1738094;80;21119;-84
2022/08/31 05:58:45;;;;;;;11.30;7.80;;;;;;;13.02;100.00;98461.94;1743110;80;21055;-91
2022/08/31 06:01:15;;;;;;;12.63;8.35;;;;;;;13.10;100.00;98453.72;1728789;80;21623;-83
2022/08/31 06:03:41;;;;;;;14.35;9.35;;;;;;;13.17;100.00;98463.17;1740831;81;21399;-83
2022/08/31 06:06:08;;;;;;;20.17;9.15;;;;;;;13.25;100.00;98461.23;1723906;80;35494;-84
2022/08/31 06:08:36;;;;;;;10.48;6.78;;;;;;;13.39;100.00;98461.91;1745372;81;21128;-90
2022/08/31 06:11:03;;;;;;;7.83;6.12;;;;;;;13.46;100.00;98463.75;1746849;79;21074;-84
2022/08/31 06:13:28;;;;;;;9.98;6.62;;;;;;;13.55;100.00;98470.19;1739070;79;21090;-90
2022/08/31 06:15:57;;;;;;;7.03;5.87;;;;;;;13.53;100.00;98466.39;1742445;79;20886;-85
2022/08/31 06:18:22;;;;;;;9.90;6.50;;;;;;;13.60;100.00;98474.23;1741144;79;21013;-91
2022/08/31 06:20:48;;;;;;;8.30;6.97;;;;;;;13.79;100.00;98482.47;1744223;79;20973;-86
2022/08/31 06:23:15;;;;;;;8.53;6.72;;;;;;;13.97;100.00;98483.63;1743805;79;21073;-90
2022/08/31 06:25:41;;;;;;;8.73;6.83;;;;;;;14.13;100.00;98470.63;1743506;80;21268;-91
2022/08/31 06:28:08;;;;;;;6.97;6.05;;;;;;;14.18;100.00;98484.17;1752230;80;20875;-85
2022/08/31 06:30:38;;;;;;;8.85;6.60;;;;;;;14.21;100.00;98483.61;1743882;79;21533;-90
2022/08/31 06:33:06;;;;;;;8.28;6.58;;;;;;;14.23;100.00;98482.76;1752848;80;21078;-91
2022/08/31 06:35:32;;;;;;;10.60;7.17;;;;;;;14.32;100.00;98479.64;1725273;80;21063;-92
2022/08/31 06:37:58;;;;;;;11.90;7.28;;;;;;;14.33;100.00;98476.62;1738747;80;21183;-84
2022/08/31 06:40:25;;;;;;;8.43;6.28;;;;;;;14.48;100.00;98473.47;1737486;80;21104;-84
2022/08/31 06:42:51;;;;;;;8.53;7.03;;;;;;;14.53;100.00;98485.13;1731720;80;21379;-84
2022/08/31 06:45:17;;;;;;;9.40;6.75;;;;;;;14.68;100.00;98475.89;1739055;80;21493;-83
2022/08/31 06:47:43;;;;;;;7.50;5.65;;;;;;;14.78;100.00;98475.73;1744741;80;21593;-91
2022/08/31 06:50:11;;;;;;;8.53;7.28;;;;;;;14.81;100.00;98477.08;1733373;79;21044;-92
2022/08/31 06:52:37;;;;;;;7.33;6.28;;;;;;;15.09;100.00;98473.91;1739501;79;21048;-92
2022/08/31 06:55:03;;;;;;;6.90;6.10;;;;;;;15.49;100.00;98477.31;1741191;80;20996;-91
2022/08/31 06:57:29;;;;;;;6.12;5.50;;;;;;;16.01;100.00;98477.19;1752060;80;21060;-84
2022/08/31 06:59:55;;;;;;;8.13;5.67;;;;;;;16.61;100.00;98466.88;1740467;80;20977;-91
2022/08/31 07:02:21;;;;;;;7.55;6.75;;;;;;;17.11;96.90;98482.45;1707759;81;21540;-84
2022/08/31 07:04:47;;;;;;;6.97;5.20;;;;;;;17.65;98.02;98477.22;1706258;81;21343;-85
2022/08/31 07:07:13;;;;;;;5.92;5.00;;;;;;;18.33;99.56;98468.22;1761420;79;20949;-85
2022/08/31 07:09:39;;;;;;;7.12;5.45;;;;;;;18.79;98.99;98475.08;1730130;80;21412;-90
2022/08/31 07:12:06;;;;;;;9.45;6.30;;;;;;;19.35;96.75;98472.71;1755802;79;21509;-91
2022/08/31 07:14:32;;;;;;;10.72;5.20;;;;;;;20.09;95.85;98466.61;1750096;79;21112;-85
2022/08/31 07:16:58;;;;;;;5.25;4.60;;;;;;;20.55;93.83;98472.59;1762847;79;21018;-85
2022/08/31 07:19:24;;;;;;;12.82;9.78;;;;;;;20.93;90.33;98469.70;1757653;79;21611;-85
2022/08/31 07:21:53;;;;;;;5.97;3.95;;;;;;;21.34;87.53;98469.44;1753471;79;21100;-84
2022/08/31 07:24:22;;;;;;;;;;;;;;;21.35;82.00;98466.34;1766637;78;21486;-92
2022/08/31 07:26:59;;;;;;;5.42;4.20;;;;;;;21.68;78.70;98471.83;1734282;80;21123;-85
2022/08/31 07:29:23;;;;;;;5.15;3.95;;;;;;;22.03;80.49;98476.94;1739579;80;21164;-92
2022/08/31 07:31:49;;;;;;;3.30;3.00;;;;;;;22.94;75.49;98473.33;1743039;81;21025;-90
2022/08/31 07:34:19;;;;;;;4.22;3.37;;;;;;;23.08;76.17;98469.61;1749438;80;21412;-91
2022/08/31 07:42:19;;;;;;;3.47;2.80;;;;;;;24.27;73.34;98465.20;1732414;80;21554;-85
2022/08/31 07:44:49;;;;;;;3.95;2.65;;;;;;;24.66;66.96;98463.38;1736335;80;21057;-92
2022/08/31 07:47:19;;;;;;;5.58;3.05;;;;;;;24.56;63.76;98458.41;1739561;81;21415;-86
2022/08/31 07:49:46;;;;;;;4.58;2.33;;;;;;;24.57;66.85;98456.66;1736922;80;21080;-92
2022/08/31 07:52:11;;;;;;;3.65;3.02;;;;;;;24.64;69.49;98464.33;1768865;79;21493;-92
2022/08/31 07:54:39;;;;;;;4.45;3.33;;;;;;;24.57;68.06;98461.39;1744488;80;20921;-92
2022/08/31 07:57:05;;;;;;;3.33;2.72;;;;;;;23.91;68.18;98474.02;1743525;81;21462;-86
2022/08/31 07:59:32;;;;;;;4.30;3.52;;;;;;;23.29;68.10;98472.16;1743638;79;20893;-91
2022/08/31 08:02:02;;;;;;;3.52;2.83;;;;;;;23.35;67.88;98465.80;1731609;80;21089;-85
2022/08/31 08:04:29;;;;;;;5.83;3.02;;;;;;;23.30;68.98;98461.90;1750520;80;21280;-91
2022/08/31 08:06:55;;;;;;;3.87;2.72;;;;;;;23.54;67.55;98467.30;1746621;80;21009;-85
2022/08/31 08:09:23;;;;;;;4.97;3.60;;;;;;;24.03;68.65;98471.17;1737286;80;20970;-85
2022/08/31 08:11:53;;;;;;;6.17;2.42;;;;;;;23.32;67.76;98472.82;1734926;79;21033;-85
2022/08/31 08:14:17;;;;;;;3.50;2.77;;;;;;;23.07;68.09;98464.41;1731841;80;21045;-93
2022/08/31 08:16:43;;;;;;;4.12;2.80;;;;;;;23.90;66.04;98464.11;1735713;80;21082;-92
2022/08/31 08:19:08;;;;;;;3.83;2.62;;;;;;;25.22;66.04;98457.47;1746881;80;20866;-92
2022/08/31 08:21:35;;;;;;;3.70;3.08;;;;;;;25.67;65.55;98462.86;1745623;80;21465;-85
2022/08/31 08:24:01;;;;;;;3.55;1.92;;;;;;;25.14;65.71;98462.06;1730295;80;21000;-92
2022/08/31 08:26:28;;;;;;;3.90;2.20;;;;;;;25.50;63.70;98465.52;1736146;80;21311;-92
2022/08/31 08:28:54;;;;;;;2.62;1.80;;;;;;;26.48;61.51;98463.45;1757840;79;21975;-92
2022/08/31 08:31:23;;;;;;;2.75;1.85;;;;;;;26.82;56.53;98467.12;1729011;80;20986;-90
2022/08/31 08:33:50;;;;;;;4.05;1.82;;;;;;;27.20;57.39;98470.23;1719523;80;21015;-92
2022/08/31 08:36:17;;;;;;;1.98;1.25;;;;;;;26.84;53.97;98472.33;1743758;80;21127;-92
2022/08/31 08:38:45;;;;;;;2.35;1.10;;;;;;;25.16;55.83;98467.23;1746957;80;21402;-91
2022/08/31 08:41:18;;;;;;;5.42;1.37;;;;;;;24.34;56.70;98473.70;1737128;80;27248;-86
2022/08/31 08:43:49;;;;;;;2.77;1.60;;;;;;;23.62;57.68;98469.72;1730753;80;21037;-92
2022/08/31 08:46:15;;;;;;;2.70;1.55;;;;;;;23.51;59.59;98468.61;1744809;80;21467;-92
2022/08/31 08:48:42;;;;;;;24.05;3.08;;;;;;;23.22;61.15;98465.04;1720513;80;21512;-85
2022/08/31 08:51:16;;;;;;;8.23;1.55;;;;;;;22.26;62.74;98459.96;1725385;80;21036;-92
2022/08/31 08:53:43;;;;;;;2.72;1.30;;;;;;;22.00;63.83;98465.80;1740214;80;21201;-85
2022/08/31 08:56:13;;;;;;;3.20;1.40;;;;;;;21.60;64.17;98463.66;1751284;80;21040;-86
2022/08/31 08:58:42;;;;;;;4.97;1.80;;;;;;;21.58;64.95;98454.93;1748436;80;21033;-85
2022/08/31 09:01:14;;;;;;;2.85;1.30;;;;;;;21.45;66.37;98461.00;1740106;80;21120;-92
2022/08/31 09:03:52;;;;;;;3.22;1.15;;;;;;;21.21;66.93;98454.00;1725428;80;21079;-92
2022/08/31 09:06:27;;;;;;;3.07;1.20;;;;;;;21.08;67.29;98453.13;1747237;80;21132;-85
2022/08/31 09:09:23;;;;;;;2.20;1.15;;;;;;;21.45;66.92;98455.48;1740398;80;21014;-86
2022/08/31 09:12:24;;;;;;;4.75;1.10;;;;;;;21.11;66.36;98451.90;1745029;80;21061;-86
2022/08/31 09:15:34;;;;;;;2.25;1.30;;;;;;;21.01;66.49;98449.53;1741775;80;21447;-91
2022/08/31 09:18:25;;;;;;;4.17;1.82;;;;;;;20.55;68.48;98438.18;1728681;80;21080;-91
2022/08/31 09:21:20;;;;;;;3.67;1.80;;;;;;;20.37;70.73;98443.54;1736300;80;21126;-85
2022/08/31 09:23:47;;;;;;;3.77;2.12;;;;;;;19.99;73.95;98445.75;1729503;81;21439;-85
2022/08/31 09:26:16;;;;;;;3.65;1.92;;;;;;;19.83;75.25;98446.10;1741539;80;21029;-92
2022/08/31 09:28:45;;;;;;;6.35;2.42;;;;;;;19.57;76.35;98444.25;1747394;80;21132;-92
2022/08/31 09:31:36;;;;;;;4.35;2.42;;;;;;;19.20;79.35;98445.75;1722561;80;21644;-91
2022/08/31 09:34:11;;;;;;;3.70;2.00;;;;;;;19.04;80.47;98449.56;1735209;80;21701;-84
2022/08/31 09:36:39;;;;;;;3.27;2.27;;;;;;;18.86;79.67;98442.47;1746964;80;21501;-85
2022/08/31 09:39:19;;;;;;;;;;;;;;;18.78;81.62;98441.91;1754053;80;21435;-90
2022/08/31 09:41:46;;;;;;;2.80;2.00;;;;;;;18.63;81.11;98444.55;1748127;79;20158;-92
2022/08/31 09:44:23;;;;;;;7.08;1.82;;;;;;;18.55;82.16;98443.98;1745412;80;21470;-92
2022/08/31 09:46:53;;;;;;;6.45;1.87;;;;;;;18.49;82.86;98441.95;1741738;80;21113;-85
2022/08/31 09:49:26;;;;;;;4.67;1.60;;;;;;;18.49;81.91;98442.52;1759009;79;21097;-84
2022/08/31 09:51:53;;;;;;;4.25;2.05;;;;;;;18.51;81.59;98443.80;1735489;81;21108;-84
2022/08/31 09:57:09;;;;;;;;;;;;;;;18.48;81.99;98445.02;1734740;81;21136;-90
2022/08/31 09:59:48;;;;;;;2.58;1.92;;;;;;;18.29;83.32;98440.64;1727501;80;21174;-84
2022/08/31 10:02:32;;;;;;;5.10;2.12;;;;;;;18.27;82.79;98442.87;1734902;80;21286;-91
2022/08/31 10:05:05;;;;;;;8.80;2.20;;;;;;;18.35;82.89;98449.50;1766671;79;21025;-85
2022/08/31 10:07:46;;;;;;;5.35;1.82;;;;;;;18.48;82.18;98447.77;1771349;80;20954;-86
2022/08/31 10:10:25;;;;;;;4.62;1.60;;;;;;;18.45;83.67;98449.19;1709644;81;21078;-85
2022/08/31 10:13:33;;;;;;;3.77;1.75;;;;;;;18.48;83.93;98448.56;1737251;80;21101;-84
2022/08/31 10:16:01;;;;;;;8.95;1.80;;;;;;;18.43;81.72;98443.22;1719204;80;21108;-89
2022/08/31 10:18:38;;;;;;;6.72;1.90;;;;;;;18.49;81.78;98451.55;1742824;80;21025;-82
2022/08/31 10:21:20;;;;;;;24.80;2.60;;;;;;;18.51;81.47;98453.97;1747469;80;21009;-91
2022/08/31 10:24:32;;;;;;;3.27;1.77;;;;;;;18.58;81.07;98457.85;1737460;80;21128;-84
2022/08/31 10:27:04;;;;;;;6.78;2.55;;;;;;;18.53;80.68;98455.82;1742850;80;21117;-91
2022/08/31 10:29:53;;;;;;;3.50;1.62;;;;;;;18.44;80.75;98454.44;1727578;81;21032;-84
2022/08/31 10:32:42;;;;;;;2.60;1.60;;;;;;;18.35;80.85;98456.36;1741281;80;21040;-84
2022/08/31 10:35:19;;;;;;;4.45;2.05;;;;;;;18.49;80.64;98449.38;1740557;80;21036;-92
2022/08/31 10:38:25;;;;;;;4.50;1.70;;;;;;;18.49;81.63;98443.31;1738760;80;21080;-92
2022/08/31 10:40:53;;;;;;;4.55;2.27;;;;;;;18.59;81.26;98445.75;1742426;80;21489;-90
2022/08/31 10:43:22;;;;;;;2.15;1.47;;;;;;;18.56;81.30;98442.84;1740731;81;21222;-84
2022/08/31 10:45:51;;;;;;;4.05;1.55;;;;;;;18.52;81.52;98444.61;1728343;80;21072;-92
2022/08/31 10:48:23;;;;;;;4.03;1.80;;;;;;;18.43;80.54;98440.48;1751492;79;21034;-85
2022/08/31 10:51:07;;;;;;;3.72;1.92;;;;;;;18.47;81.49;98431.06;1743394;80;21093;-84
2022/08/31 10:54:03;;;;;;;4.37;2.05;;;;;;;18.69;81.20;98432.30;1737076;80;21521;-90
2022/08/31 10:56:43;;;;;;;5.28;1.65;;;;;;;18.74;80.66;98434.89;1743817;80;21076;-92
2022/08/31 10:59:38;;;;;;;3.15;1.60;;;;;;;18.84;80.01;98444.73;1734568;80;21147;-84
2022/08/31 11:02:43;;;;;;;3.65;1.47;;;;;;;18.91;79.75;98440.95;1731642;80;21481;-91
2022/08/31 11:05:41;;;;;;;1.87;1.40;;;;;;;18.99;79.87;98443.44;1741518;80;21457;-84
2022/08/31 11:08:34;;;;;;;2.77;1.65;;;;;;;18.97;78.21;98437.45;1733349;80;21027;-92
2022/08/31 11:10:59;;;;;;;3.50;1.57;;;;;;;18.89;77.58;98433.60;1739823;80;21027;-87
2022/08/31 11:13:43;;;;;;;3.40;1.77;;;;;;;19.00;78.36;98426.64;1743993;80;20898;-85
2022/08/31 11:16:35;;;;;;;6.47;1.65;;;;;;;19.04;78.47;98437.20;1715268;80;21178;-91
2022/08/31 11:19:38;;;;;;;1.92;1.52;;;;;;;19.20;78.28;98427.89;1732294;80;21584;-91
2022/08/31 11:22:42;;;;;;;2.87;1.75;;;;;;;19.31;78.26;98430.55;1745283;80;21127;-84
2022/08/31 11:25:29;;;;;;;4.55;1.87;;;;;;;19.25;76.23;98428.30;1727372;80;21037;-85
2022/08/31 11:28:17;;;;;;;5.28;1.65;;;;;;;19.42;77.00;98424.94;1745598;80;21497;-84
2022/08/31 11:30:45;;;;;;;3.10;1.95;;;;;;;19.48;76.23;98422.00;1733283;80;21143;-90
2022/08/31 11:33:20;;;;;;;3.98;2.15;;;;;;;19.68;76.48;98417.20;1729741;80;21572;-91
2022/08/31 11:36:04;;;;;;;3.17;1.80;;;;;;;19.76;76.65;98417.73;1732154;80;21072;-84
2022/08/31 11:39:02;;;;;;;3.20;2.60;;;;;;;19.86;75.82;98417.36;1738940;80;21469;-91
2022/08/31 11:41:46;;;;;;;4.40;2.65;;;;;;;20.10;75.69;98408.50;1744408;80;21056;-84
2022/08/31 11:44:35;;;;;;;5.60;3.33;;;;;;;19.88;74.12;98406.83;1734244;80;21028;-91
2022/08/31 11:47:15;;;;;;;5.97;2.70;;;;;;;20.05;75.50;98410.06;1740339;80;21010;-91
2022/08/31 11:49:49;;;;;;;3.20;1.92;;;;;;;20.15;75.62;98412.98;1745618;80;21145;-85
2022/08/31 11:52:28;;;;;;;4.70;1.90;;;;;;;20.30;75.42;98424.80;1728887;82;20997;-85